Palm Springs, CA

12:01 PM PDT on September 02, 2015 (GMT -0700)
Palm Springs International | | Change Station
CLOSE
Current Station
Airport
Location: Palm Springs,
Elevation: 476 ft
Nearby Weather Stations

Elev 476 ft 33.82 °N, 116.50 °W | Updated 8 minutes ago

Mostly Cloudy
Mostly Cloudy
95 °F
Feels Like 95 °F
N
0
Wind Variable Wind from North

Today
High -- | Low -- °F
--% Chance of Precip.
Yesterday
High -- | Low -- °F
Precip. -- in
6:20 AM 7:10 PM
Waning Gibbous, 78% visible
Pressure 29.86 in
Visibility 10.0 miles
Clouds Mostly Cloudy 20000 ft
Dew Point 46 °F
Humidity 19%
Rainfall 0.00 in
Snow Depth Not available.
UV 5 out of 12
Pollen 7.00 out of 12
Air Quality Not available.
Flu Activity Not available.
METAR KPSP 021853Z 00000KT 10SM BKN200 35/08 A2987 RMK AO2 SLP109 T03500078
Pressure 29.86 in
Visibility 10.0 miles
Clouds Mostly Cloudy 20000 ft
Dew Point 46 °F
Humidity 19%
Rainfall 0.00 in
Snow Depth Not available.
UV 5 out of 12
Pollen 7.00 out of 12
Air Quality Not available.
Flu Activity Not available.
METAR KPSP 021853Z 00000KT 10SM BKN200 35/08 A2987 RMK AO2 SLP109 T03500078

10-Day Weather Forecast

×

Almanac

Astronomy

Sep. 02, 2015 Rise Set
Actual Time
Civil Twilight
Nautical Twilight
Astronomical Twilight
Moon
Length of Visible Light
Length of Day
Tomorrow will be .
, % of the Moon is Illuminated

Today's Extremes

State Highs State Lows

Community

WunderPhotos

Upload Photos

1,851,799 photos uploaded!

WunderBlogs® & News

Nearby

Air Quality

  Air Quality AQ Index Pollutant
Not available.

Snow Depth

Station Depth Elevation

Earthquake Activity

City Distance Mag. Time & Date
Minimum magnitude displayed is 2.5.

Coastal Water Temperatures

Place Temperature

Stations

Nearby Weather Stations

Station Location Temp. Windchill Dew Point Humidity Wind Precip. Elev Updated Type